createdAt,value
2022-12-03T00:00:15.822Z,102523.44
2022-12-03T00:02:42.451Z,102518.84
2022-12-03T00:05:09.230Z,102515.28
2022-12-03T00:07:35.724Z,102514.50
2022-12-03T00:10:02.206Z,102515.75
2022-12-03T00:12:28.609Z,102515.34
2022-12-03T00:14:55.413Z,102517.22
2022-12-03T00:17:22.002Z,102521.44
2022-12-03T00:19:48.484Z,102522.97
2022-12-03T00:22:14.925Z,102514.34
2022-12-03T00:24:41.358Z,102518.47
2022-12-03T00:27:07.876Z,102510.84
2022-12-03T00:29:34.263Z,102514.69
2022-12-03T00:32:00.710Z,102510.63
2022-12-03T00:34:27.166Z,102519.03
2022-12-03T00:36:53.594Z,102504.97
2022-12-03T00:39:20.020Z,102506.09
2022-12-03T00:41:46.471Z,102510.94
2022-12-03T00:44:12.964Z,102504.19
2022-12-03T00:46:39.607Z,102510.97
2022-12-03T00:49:06.194Z,102503.22
2022-12-03T00:51:32.638Z,102517.19
2022-12-03T00:53:59.062Z,102509.44
2022-12-03T00:56:25.453Z,102505.97
2022-12-03T00:58:51.866Z,102513.63
2022-12-03T01:01:18.375Z,102500.34
2022-12-03T01:03:44.821Z,102498.59
2022-12-03T01:06:11.246Z,102513.16
2022-12-03T01:08:37.683Z,102517.97
2022-12-03T01:11:04.256Z,102515.28
2022-12-03T01:13:30.733Z,102508.38
2022-12-03T01:15:57.219Z,102509.38
2022-12-03T01:18:23.694Z,102512.22
2022-12-03T01:20:50.128Z,102510.38
2022-12-03T01:23:16.549Z,102505.91
2022-12-03T01:25:43.022Z,102517.75
2022-12-03T01:28:09.536Z,102506.19
2022-12-03T01:30:56.000Z,102501.16
2022-12-03T01:33:22.482Z,102502.09
2022-12-03T01:35:48.928Z,102508.53
2022-12-03T01:38:15.396Z,102493.97
2022-12-03T01:40:41.926Z,102502.25
2022-12-03T01:43:08.426Z,102505.97
2022-12-03T01:45:34.819Z,102497.94
2022-12-03T01:48:01.467Z,102507.81
2022-12-03T01:50:31.151Z,102499.78
2022-12-03T01:53:00.218Z,102503.50
2022-12-03T01:55:26.749Z,102499.06
2022-12-03T01:57:56.084Z,102504.72
2022-12-03T02:00:23.814Z,102504.00
2022-12-03T02:02:55.036Z,102505.13
2022-12-03T02:05:23.346Z,102499.69
2022-12-03T02:07:49.861Z,102504.13
2022-12-03T02:10:17.509Z,102500.53
2022-12-03T02:12:46.668Z,102499.69
2022-12-03T02:15:13.437Z,102495.13
2022-12-03T02:17:40.389Z,102496.97
2022-12-03T02:20:08.599Z,102501.31
2022-12-03T02:22:47.138Z,102496.72
2022-12-03T02:25:16.754Z,102508.53
2022-12-03T02:27:43.445Z,102499.44
2022-12-03T02:30:10.909Z,102496.84
2022-12-03T02:32:37.478Z,102487.75
2022-12-03T02:35:03.953Z,102494.13
2022-12-03T02:37:32.363Z,102494.97
2022-12-03T02:40:00.214Z,102491.41
2022-12-03T02:42:35.753Z,102493.25
2022-12-03T02:45:05.910Z,102494.97
2022-12-03T02:47:34.282Z,102495.13
2022-12-03T02:50:01.173Z,102488.97
2022-12-03T02:52:27.732Z,102494.25
2022-12-03T02:54:54.452Z,102489.06
2022-12-03T02:57:21.385Z,102487.13
2022-12-03T02:59:48.056Z,102492.53
2022-12-03T03:02:14.871Z,102489.69
2022-12-03T03:04:42.429Z,102492.28
2022-12-03T03:07:09.430Z,102484.13
2022-12-03T03:09:35.935Z,102492.16
2022-12-03T03:12:02.335Z,102487.75
2022-12-03T03:14:28.749Z,102486.84
2022-12-03T03:16:58.130Z,102478.72
2022-12-03T03:19:28.858Z,102479.69
2022-12-03T03:21:55.412Z,102477.00
2022-12-03T03:24:22.787Z,102478.72
2022-12-03T03:26:49.653Z,102474.28
2022-12-03T03:29:16.342Z,102469.84
2022-12-03T03:31:44.084Z,102470.72
2022-12-03T03:34:10.591Z,102469.72
2022-12-03T03:36:37.102Z,102461.72
2022-12-03T03:39:05.262Z,102471.84
2022-12-03T03:41:32.694Z,102463.72
2022-12-03T03:43:59.559Z,102454.69
2022-12-03T03:46:27.464Z,102458.28
2022-12-03T03:48:54.130Z,102458.28
2022-12-03T03:51:20.937Z,102451.00
2022-12-03T03:53:48.910Z,102445.59
2022-12-03T03:56:19.407Z,102449.16
2022-12-03T03:58:45.891Z,102447.44
2022-12-03T04:01:13.241Z,102445.69
2022-12-03T04:03:40.236Z,102442.00
2022-12-03T04:06:06.998Z,102443.84
2022-12-03T04:08:33.438Z,102443.84
2022-12-03T04:11:18.619Z,102443.13
2022-12-03T04:13:45.090Z,102441.50
2022-12-03T04:16:11.605Z,102429.53
2022-12-03T04:18:44.002Z,102435.81
2022-12-03T04:21:39.194Z,102428.06
2022-12-03T04:24:06.227Z,102431.91
2022-12-03T04:26:51.346Z,102432.63
2022-12-03T04:29:18.114Z,102438.06
2022-12-03T04:32:03.420Z,102434.47
2022-12-03T04:34:48.342Z,102432.03
2022-12-03T04:37:14.813Z,102441.00
2022-12-03T04:39:41.405Z,102430.31
2022-12-03T04:42:08.037Z,102430.31
2022-12-03T04:44:37.421Z,102425.75
2022-12-03T04:47:09.151Z,102427.59
2022-12-03T04:49:36.755Z,102427.59
2022-12-03T04:52:03.460Z,102432.16
2022-12-03T04:54:30.128Z,102430.44
2022-12-03T04:56:56.689Z,102430.44
2022-12-03T04:59:23.188Z,102426.88
2022-12-03T05:01:49.741Z,102427.84
2022-12-03T05:04:16.293Z,102426.72
2022-12-03T05:06:42.801Z,102425.97
2022-12-03T05:09:09.764Z,102419.59
2022-12-03T05:11:36.273Z,102422.41
2022-12-03T05:14:02.913Z,102423.28
2022-12-03T05:16:29.622Z,102418.75
2022-12-03T05:18:56.125Z,102414.16
2022-12-03T05:21:22.666Z,102413.31
2022-12-03T05:23:49.515Z,102417.75
2022-12-03T05:26:15.983Z,102413.19
2022-12-03T05:28:42.395Z,102409.59
2022-12-03T05:31:08.973Z,102413.19
2022-12-03T05:33:39.468Z,102422.16
2022-12-03T05:36:09.158Z,102406.03
2022-12-03T05:38:35.809Z,102412.19
2022-12-03T05:41:02.195Z,102421.16
2022-12-03T05:43:28.646Z,102416.75
2022-12-03T05:45:55.186Z,102409.59
2022-12-03T05:48:21.691Z,102412.31
2022-12-03T05:50:48.194Z,102409.72
2022-12-03T05:53:15.471Z,102395.31
2022-12-03T05:55:42.123Z,102408.84
2022-12-03T05:58:08.666Z,102399.75
2022-12-03T06:00:42.445Z,102391.72
2022-12-03T06:03:09.712Z,102409.84
2022-12-03T06:05:36.246Z,102401.84
2022-12-03T06:08:02.744Z,102405.53
2022-12-03T06:10:29.526Z,102402.25
2022-12-03T06:12:56.201Z,102405.66
2022-12-03T06:15:22.774Z,102404.94
2022-12-03T06:17:49.190Z,102394.34
2022-12-03T06:20:17.074Z,102393.59
2022-12-03T06:22:43.637Z,102396.44
2022-12-03T06:25:10.826Z,102396.59
2022-12-03T06:27:37.648Z,102401.00
2022-12-03T06:30:04.542Z,102398.31
2022-12-03T06:32:30.922Z,102402.09
2022-12-03T06:34:57.383Z,102397.53
2022-12-03T06:37:23.867Z,102401.13
2022-12-03T06:39:50.329Z,102394.72
2022-12-03T06:42:16.791Z,102392.88
2022-12-03T06:44:43.199Z,102402.59
2022-12-03T06:47:09.621Z,102392.88
2022-12-03T06:49:36.062Z,102400.50
2022-12-03T06:52:02.543Z,102390.50
2022-12-03T06:54:29.014Z,102397.53
2022-12-03T06:56:55.451Z,102403.81
2022-12-03T06:59:21.934Z,102402.81
2022-12-03T07:01:48.418Z,102401.00
2022-12-03T07:04:14.842Z,102404.44
2022-12-03T07:06:41.314Z,102396.28
2022-12-03T07:09:07.721Z,102396.44
2022-12-03T07:11:40.429Z,102397.28
2022-12-03T07:14:07.891Z,102382.13
2022-12-03T07:16:50.154Z,102392.13
2022-12-03T07:19:16.969Z,102394.22
2022-12-03T07:21:43.460Z,102391.50
2022-12-03T07:24:09.986Z,102384.38
2022-12-03T07:26:36.458Z,102388.06
2022-12-03T07:29:03.161Z,102386.22
2022-12-03T07:31:29.637Z,102388.94
2022-12-03T07:33:56.153Z,102366.88
2022-12-03T07:36:22.668Z,102387.94
2022-12-03T07:38:49.131Z,102385.09
2022-12-03T07:41:15.576Z,102397.78
2022-12-03T07:43:42.019Z,102392.50
2022-12-03T07:46:08.549Z,102394.59
2022-12-03T07:48:35.029Z,102396.59
2022-12-03T07:51:01.540Z,102389.41
2022-12-03T07:53:28.049Z,102388.69
2022-12-03T07:55:54.546Z,102388.69
2022-12-03T07:58:20.967Z,102393.97
2022-12-03T08:00:47.451Z,102390.41
2022-12-03T08:03:13.970Z,102385.97
2022-12-03T08:05:40.413Z,102389.69
2022-12-03T08:08:06.951Z,102391.41
2022-12-03T08:10:33.445Z,102386.97
2022-12-03T08:13:00.182Z,102380.69
2022-12-03T08:15:32.219Z,102389.69
2022-12-03T08:18:07.358Z,102385.22
2022-12-03T08:20:35.008Z,102389.69
2022-12-03T08:23:03.951Z,102384.13
2022-12-03T08:25:31.774Z,102383.13
2022-12-03T08:28:11.727Z,102384.75
2022-12-03T08:30:38.154Z,102378.34
2022-12-03T08:33:40.297Z,102378.34
2022-12-03T08:36:14.607Z,102369.59
2022-12-03T08:38:41.059Z,102375.13
2022-12-03T08:41:15.030Z,102380.44
2022-12-03T08:43:44.315Z,102377.59
2022-12-03T08:46:18.897Z,102380.31
2022-12-03T08:48:49.177Z,102381.19
2022-12-03T08:51:20.786Z,102373.03
2022-12-03T08:53:53.322Z,102365.78
2022-12-03T08:56:24.518Z,102374.91
2022-12-03T08:58:55.697Z,102378.47
2022-12-03T09:01:31.447Z,102379.31
2022-12-03T09:04:02.335Z,102370.19
2022-12-03T09:06:28.887Z,102376.38
2022-12-03T09:08:55.368Z,102374.50
2022-12-03T09:11:21.791Z,102376.22
2022-12-03T09:13:48.308Z,102372.53
2022-12-03T09:16:14.902Z,102370.66
2022-12-03T09:18:41.415Z,102367.84
2022-12-03T09:21:07.815Z,102373.13
2022-12-03T09:23:34.235Z,102369.56
2022-12-03T09:26:00.773Z,102366.72
2022-12-03T09:28:27.246Z,102368.56
2022-12-03T09:30:53.686Z,102361.44
2022-12-03T09:33:20.122Z,102366.72
2022-12-03T09:35:46.578Z,102373.00
2022-12-03T09:38:13.131Z,102361.19
2022-12-03T09:40:39.610Z,102360.19
2022-12-03T09:43:06.209Z,102361.06
2022-12-03T09:45:32.837Z,102366.34
2022-12-03T09:48:01.961Z,102359.94
2022-12-03T09:50:28.593Z,102352.66
2022-12-03T09:52:56.914Z,102349.97
2022-12-03T09:55:25.453Z,102345.41
2022-12-03T09:57:55.518Z,102342.53
2022-12-03T10:00:23.408Z,102340.69
2022-12-03T10:02:51.535Z,102346.97
2022-12-03T10:05:21.518Z,102338.72
2022-12-03T10:07:51.826Z,102335.75
2022-12-03T10:10:20.306Z,102334.03
2022-12-03T10:12:47.147Z,102332.16
2022-12-03T10:15:14.946Z,102325.88
2022-12-03T10:17:41.539Z,102336.72
2022-12-03T10:20:11.194Z,102328.75
2022-12-03T10:22:37.600Z,102327.75
2022-12-03T10:25:07.457Z,102324.16
2022-12-03T10:27:34.000Z,102318.03
2022-12-03T10:30:01.268Z,102313.84
2022-12-03T10:32:40.278Z,102320.38
2022-12-03T10:35:09.626Z,102324.09
2022-12-03T10:37:36.165Z,102318.78
2022-12-03T10:40:08.378Z,102307.06
2022-12-03T10:42:39.529Z,102310.06
2022-12-03T10:45:19.646Z,102307.47
2022-12-03T10:48:06.705Z,102301.34
2022-12-03T10:50:34.319Z,102305.16
2022-12-03T10:53:02.310Z,102305.16
2022-12-03T10:55:32.326Z,102289.75
2022-12-03T10:57:58.837Z,102308.59
2022-12-03T11:00:25.378Z,102302.19
2022-12-03T11:02:56.701Z,102296.75
2022-12-03T11:05:26.881Z,102296.38
2022-12-03T11:07:53.640Z,102294.03
2022-12-03T11:10:20.593Z,102286.22
2022-12-03T11:13:05.926Z,102286.81
2022-12-03T11:15:43.971Z,102289.38
2022-12-03T11:18:10.425Z,102285.72
2022-12-03T11:20:42.869Z,102281.03
2022-12-03T11:23:10.235Z,102278.44
2022-12-03T11:25:47.578Z,102275.84
2022-12-03T11:28:13.993Z,102283.09
2022-12-03T11:30:49.997Z,102278.53
2022-12-03T11:33:21.639Z,102265.28
2022-12-03T11:36:03.358Z,102267.84
2022-12-03T11:38:40.856Z,102270.69
2022-12-03T11:41:13.546Z,102259.94
2022-12-03T11:43:52.252Z,102255.53
2022-12-03T11:46:18.745Z,102248.50
2022-12-03T11:48:45.733Z,102256.63
2022-12-03T11:51:14.395Z,102253.06
2022-12-03T11:53:41.152Z,102254.06
2022-12-03T11:56:10.533Z,102257.63
2022-12-03T11:58:39.552Z,102248.50
2022-12-03T12:01:07.405Z,102242.97
2022-12-03T12:03:34.119Z,102249.00
2022-12-03T12:06:03.690Z,102249.47
2022-12-03T12:08:30.389Z,102249.09
2022-12-03T12:10:56.811Z,102245.28
2022-12-03T12:13:32.282Z,102240.41
2022-12-03T12:15:59.655Z,102238.31
2022-12-03T12:18:41.148Z,102247.19
2022-12-03T12:21:26.425Z,102239.66
2022-12-03T12:23:52.847Z,102243.22
2022-12-03T12:26:19.271Z,102241.34
2022-12-03T12:28:45.847Z,102238.50
2022-12-03T12:31:12.421Z,102247.38
2022-12-03T12:33:38.917Z,102237.13
2022-12-03T12:36:09.168Z,102234.13
2022-12-03T12:38:35.591Z,102232.88
2022-12-03T12:41:05.099Z,102233.47
2022-12-03T12:43:33.771Z,102229.63
2022-12-03T12:46:18.651Z,102226.91
2022-12-03T12:48:48.093Z,102227.78
2022-12-03T12:51:18.667Z,102219.50
2022-12-03T12:53:45.368Z,102226.78
2022-12-03T12:56:14.873Z,102222.19
2022-12-03T12:58:41.905Z,102228.47
2022-12-03T13:01:16.922Z,102226.91
2022-12-03T13:03:43.442Z,102221.50
2022-12-03T13:06:13.807Z,102219.75
2022-12-03T13:08:42.534Z,102220.75
2022-12-03T13:11:21.198Z,102220.75
2022-12-03T13:13:47.647Z,102217.91
2022-12-03T13:16:19.249Z,102227.88
2022-12-03T13:18:45.765Z,102208.91
2022-12-03T13:21:15.035Z,102215.22
2022-12-03T13:23:41.533Z,102206.19
2022-12-03T13:26:38.139Z,102215.22
2022-12-03T13:29:15.894Z,102210.75
2022-12-03T13:31:48.758Z,102214.31
2022-12-03T13:34:19.815Z,102211.75
2022-12-03T13:39:36.460Z,102202.63
2022-12-03T13:42:33.910Z,102202.50
2022-12-03T13:45:01.672Z,102208.78
2022-12-03T13:47:28.307Z,102196.78
2022-12-03T13:49:56.772Z,102199.22
2022-12-03T13:52:24.266Z,102195.41
2022-12-03T13:54:55.095Z,102191.81
2022-12-03T13:57:21.825Z,102193.28
2022-12-03T13:59:48.518Z,102194.72
2022-12-03T14:02:15.082Z,102202.72
2022-12-03T14:04:41.753Z,102199.84
2022-12-03T14:07:08.230Z,102196.16
2022-12-03T14:09:34.659Z,102194.16
2022-12-03T14:12:19.658Z,102194.91
2022-12-03T14:14:46.149Z,102197.47
2022-12-03T14:17:12.711Z,102193.03
2022-12-03T14:19:39.238Z,102200.19
2022-12-03T14:22:07.987Z,102193.91
2022-12-03T14:24:34.441Z,102192.03
2022-12-03T14:27:00.896Z,102181.03
2022-12-03T14:29:27.330Z,102190.19
2022-12-03T14:31:53.920Z,102187.31
2022-12-03T14:34:20.373Z,102185.59
2022-12-03T14:36:46.786Z,102176.44
2022-12-03T14:39:13.283Z,102177.34
2022-12-03T14:41:58.404Z,102178.03
2022-12-03T14:44:25.365Z,102182.63
2022-12-03T14:46:56.798Z,102182.47
2022-12-03T14:49:23.638Z,102177.78
2022-12-03T14:51:50.081Z,102179.50
2022-12-03T14:54:16.503Z,102174.66
2022-12-03T14:56:42.870Z,102184.50
2022-12-03T14:59:09.273Z,102190.66
2022-12-03T15:01:35.861Z,102186.09
2022-12-03T15:04:02.328Z,102192.38
2022-12-03T15:06:28.749Z,102197.81
2022-12-03T15:08:55.122Z,102200.53
2022-12-03T15:11:21.534Z,102197.81
2022-12-03T15:13:48.049Z,102197.94
2022-12-03T15:16:14.517Z,102199.66
2022-12-03T15:18:41.068Z,102197.81
2022-12-03T15:21:07.490Z,102200.53
2022-12-03T15:23:33.898Z,102198.50
2022-12-03T15:26:00.361Z,102196.81
2022-12-03T15:28:27.515Z,102196.94
2022-12-03T15:30:54.048Z,102189.66
2022-12-03T15:33:20.496Z,102200.53
2022-12-03T15:35:46.966Z,102199.53
2022-12-03T15:38:13.446Z,102199.53
2022-12-03T15:40:39.981Z,102195.81
2022-12-03T15:43:07.105Z,102194.81
2022-12-03T15:45:33.705Z,102194.81
2022-12-03T15:48:00.398Z,102192.13
2022-12-03T15:50:27.170Z,102193.09
2022-12-03T15:52:53.648Z,102189.50
2022-12-03T15:55:20.272Z,102190.38
2022-12-03T15:57:46.714Z,102193.94
2022-12-03T16:00:13.882Z,102195.94
2022-12-03T16:02:40.731Z,102192.38
2022-12-03T16:05:08.974Z,102197.66
2022-12-03T16:07:35.520Z,102193.38
2022-12-03T16:10:02.089Z,102196.38
2022-12-03T16:12:28.622Z,102197.81
2022-12-03T16:14:55.065Z,102185.78
2022-12-03T16:17:21.476Z,102185.69
2022-12-03T16:19:48.925Z,102183.97
2022-12-03T16:22:15.815Z,102189.66
2022-12-03T16:24:42.257Z,102187.06
2022-12-03T16:27:08.906Z,102197.22
2022-12-03T16:29:35.326Z,102189.22
2022-12-03T16:32:01.911Z,102186.63
2022-12-03T16:34:28.396Z,102182.19
2022-12-03T16:36:55.520Z,102191.34
2022-12-03T16:39:22.039Z,102177.34
2022-12-03T16:41:48.482Z,102185.19
2022-12-03T16:44:31.576Z,102178.91
2022-12-03T16:46:58.868Z,102188.06
2022-12-03T16:49:25.321Z,102177.19
2022-12-03T16:51:51.848Z,102182.63
2022-12-03T16:54:18.274Z,102180.06
2022-12-03T16:56:44.695Z,102177.34
2022-12-03T16:59:11.113Z,102177.19
2022-12-03T17:01:37.583Z,102176.59
2022-12-03T17:04:04.023Z,102178.19
2022-12-03T17:06:30.500Z,102169.31
2022-12-03T17:08:56.925Z,102173.75
2022-12-03T17:11:23.382Z,102175.34
2022-12-03T17:13:49.826Z,102173.34
2022-12-03T17:16:16.357Z,102178.63
2022-12-03T17:18:42.961Z,102175.19
2022-12-03T17:21:09.475Z,102166.06
2022-12-03T17:23:35.896Z,102176.94
2022-12-03T17:26:02.310Z,102173.34
2022-12-03T17:28:28.858Z,102168.03
2022-12-03T17:30:55.282Z,102162.75
2022-12-03T17:33:21.684Z,102162.75
2022-12-03T17:35:48.566Z,102164.75
2022-12-03T17:38:15.089Z,102165.75
2022-12-03T17:40:41.552Z,102173.88
2022-12-03T17:43:07.972Z,102172.03
2022-12-03T17:45:34.921Z,102176.59
2022-12-03T17:48:01.466Z,102172.19
2022-12-03T17:50:27.950Z,102171.16
2022-12-03T17:52:54.384Z,102164.75
2022-12-03T17:55:30.973Z,102168.47
2022-12-03T17:58:03.019Z,102164.03
2022-12-03T18:00:29.489Z,102173.03
2022-12-03T18:02:55.969Z,102168.59
2022-12-03T18:05:23.109Z,102165.16
2022-12-03T18:07:50.245Z,102162.59
2022-12-03T18:10:17.245Z,102160.00
2022-12-03T18:12:43.693Z,102162.84
2022-12-03T18:15:10.690Z,102166.69
2022-12-03T18:17:37.142Z,102169.97
2022-12-03T18:20:04.260Z,102174.50
2022-12-03T18:22:30.932Z,102171.44
2022-12-03T18:24:57.589Z,102168.94
2022-12-03T18:27:24.008Z,102160.88
2022-12-03T18:29:50.846Z,102164.53
2022-12-03T18:32:28.390Z,102165.66
2022-12-03T18:34:55.283Z,102159.78
2022-12-03T18:37:22.474Z,102165.84
2022-12-03T18:39:49.019Z,102158.28
2022-12-03T18:42:16.890Z,102156.81
2022-12-03T18:44:49.283Z,102160.63
2022-12-03T18:47:18.086Z,102165.19
2022-12-03T18:49:44.826Z,102158.94
2022-12-03T18:52:15.310Z,102163.75
2022-12-03T18:54:42.168Z,102159.44
2022-12-03T18:57:08.640Z,102157.97
2022-12-03T18:59:35.308Z,102160.09
2022-12-03T19:02:01.799Z,102157.66
2022-12-03T19:04:28.331Z,102155.91
2022-12-03T19:06:55.041Z,102158.50
2022-12-03T19:09:21.566Z,102159.38
2022-12-03T19:11:48.015Z,102158.63
2022-12-03T19:14:14.440Z,102159.63
2022-12-03T19:16:41.467Z,102167.28
2022-12-03T19:19:08.646Z,102170.00
2022-12-03T19:21:35.756Z,102171.84
2022-12-03T19:24:23.908Z,102165.69
2022-12-03T19:26:48.894Z,102160.53
2022-12-03T19:29:15.422Z,102158.69
2022-12-03T19:31:41.937Z,102157.84
2022-12-03T19:34:08.457Z,102162.25
2022-12-03T19:36:34.945Z,102175.66
2022-12-03T19:39:01.756Z,102176.66
2022-12-03T19:41:30.474Z,102176.66
2022-12-03T19:43:57.642Z,102177.66
2022-12-03T19:46:25.208Z,102176.06
2022-12-03T19:48:51.937Z,102166.94
2022-12-03T19:51:35.417Z,102173.09
2022-12-03T19:54:03.137Z,102173.94
2022-12-03T19:56:32.576Z,102172.09
2022-12-03T19:58:59.256Z,102163.38
2022-12-03T20:01:27.253Z,102169.78
2022-12-03T20:03:55.046Z,102167.94
2022-12-03T20:06:24.177Z,102166.34
2022-12-03T20:08:51.770Z,102160.19
2022-12-03T20:11:22.730Z,102162.75
2022-12-03T20:13:51.765Z,102160.94
2022-12-03T20:16:18.306Z,102166.34
2022-12-03T20:18:47.537Z,102170.03
2022-12-03T20:21:15.683Z,102164.59
2022-12-03T20:23:42.177Z,102163.66
2022-12-03T20:26:09.473Z,102157.34
2022-12-03T20:28:36.006Z,102159.09
2022-12-03T20:31:13.592Z,102166.34
2022-12-03T20:33:41.199Z,102165.59
2022-12-03T20:36:08.021Z,102165.75
2022-12-03T20:38:34.552Z,102168.47
2022-12-03T20:41:02.168Z,102171.16
2022-12-03T20:43:28.602Z,102162.91
2022-12-03T20:46:01.061Z,102156.50
2022-12-03T20:48:29.124Z,102168.06
2022-12-03T20:50:55.545Z,102173.25
2022-12-03T20:53:25.648Z,102173.09
2022-12-03T20:55:56.315Z,102160.25
2022-12-03T20:58:22.758Z,102162.88
2022-12-03T21:00:49.323Z,102170.72
2022-12-03T21:03:15.877Z,102163.31
2022-12-03T21:05:45.020Z,102166.75
2022-12-03T21:08:11.904Z,102177.47
2022-12-03T21:10:45.106Z,102166.75
2022-12-03T21:13:12.549Z,102173.91
2022-12-03T21:15:39.032Z,102170.91
2022-12-03T21:18:05.637Z,102171.66
2022-12-03T21:20:32.095Z,102164.25
2022-12-03T21:22:58.479Z,102173.13
2022-12-03T21:25:24.863Z,102168.41
2022-12-03T21:27:51.339Z,102160.19
2022-12-03T21:30:17.886Z,102164.47
2022-12-03T21:32:44.302Z,102156.22
2022-12-03T21:35:10.838Z,102159.78
2022-12-03T21:37:37.270Z,102156.81
2022-12-03T21:40:03.790Z,102161.09
2022-12-03T21:42:36.466Z,102157.38
2022-12-03T21:45:04.059Z,102164.56
2022-12-03T21:47:36.549Z,102153.56
2022-12-03T21:50:05.219Z,102157.00
2022-12-03T21:52:32.084Z,102155.00
2022-12-03T21:54:58.527Z,102155.75
2022-12-03T21:57:24.988Z,102154.75
2022-12-03T21:59:51.428Z,102152.75
2022-12-03T22:02:17.948Z,102145.63
2022-12-03T22:04:48.804Z,102139.19
2022-12-03T22:07:15.200Z,102150.03
2022-12-03T22:09:41.594Z,102140.91
2022-12-03T22:12:08.007Z,102147.22
2022-12-03T22:14:34.526Z,102142.91
2022-12-03T22:17:00.999Z,102142.91
2022-12-03T22:19:27.656Z,102147.34
2022-12-03T22:21:54.081Z,102142.78
2022-12-03T22:24:20.599Z,102146.34
2022-12-03T22:26:47.577Z,102149.34
2022-12-03T22:29:13.977Z,102145.63
2022-12-03T22:31:40.515Z,102141.91
2022-12-03T22:34:06.953Z,102143.78
2022-12-03T22:36:33.349Z,102139.19
2022-12-03T22:38:59.782Z,102139.34
2022-12-03T22:41:26.219Z,102138.34
2022-12-03T22:43:52.638Z,102135.78
2022-12-03T22:46:19.209Z,102138.50
2022-12-03T22:48:46.730Z,102135.78
2022-12-03T22:51:14.384Z,102134.94
2022-12-03T22:53:40.831Z,102125.06
2022-12-03T22:56:07.342Z,102127.50
2022-12-03T22:58:33.886Z,102118.50
2022-12-03T23:01:03.239Z,102115.81
2022-12-03T23:03:30.099Z,102120.22
2022-12-03T23:05:56.681Z,102126.66
2022-12-03T23:08:23.233Z,102127.50
2022-12-03T23:10:50.810Z,102124.78
2022-12-03T23:13:17.836Z,102119.38
2022-12-03T23:15:53.381Z,102123.94
2022-12-03T23:18:19.978Z,102134.94
2022-12-03T23:20:47.924Z,102120.53
2022-12-03T23:23:14.626Z,102128.75
2022-12-03T23:25:41.357Z,102126.06
2022-12-03T23:28:07.818Z,102118.91
2022-12-03T23:30:38.512Z,102118.91
2022-12-03T23:33:05.697Z,102109.78
2022-12-03T23:35:32.759Z,102101.53
2022-12-03T23:37:59.266Z,102103.25
2022-12-03T23:40:25.739Z,102106.81
2022-12-03T23:42:52.199Z,102103.09
2022-12-03T23:45:18.661Z,102106.66
2022-12-03T23:47:45.067Z,102107.66
2022-12-03T23:50:11.770Z,102103.84
2022-12-03T23:52:38.382Z,102102.09
2022-12-03T23:55:05.485Z,102104.81
2022-12-03T23:57:32.262Z,102102.97
2022-12-03T23:59:58.643Z,102102.25
